PWSweather.com
Personal Weather Stations
Station Observations
ANTHEMNP
Anthem North Parkside, Anthem, AZ 85086

Anthem North ParksideAnthem, AZ 85086

Lat: 33.876464, Lon: -112.13861199999997

Elevation: 1930

Station Type: Davis Vantage Vue with Pro 2 console

http://www.azjerry.com/ANPW/wxindex.php

High Low Average
Temperature 103.8°F39.9°C 81.9°F27.7°C 91.7°F33.2°C
Dew Point 65.0°F18.3°C 47.0°F8.3°C 58.0°F14.4°C
Winds 7.4 mph 11.9 kmh Calm Calm 2.0 mph S3.2 kmh S
Wind Gusts 23.0 mph37.0 kmh -- 6.0 mph9.7 kmh
Humidity 55% 19% 34%
Pressure 29.97 in1014.9 mb 29.78 in1008.5 mb -
Precipitation 0.00 in0.0 mm - -
Hour Temp Dew Point Humidity Winds Wind Gusts Pressure Precip Precip Rate Daily Precip Total
12:00 AM 91.6°F33.1°C 52.0°F11.1°C 26% Calm Calm 1.0 mph1.6 kmh 29.80 in1009.1 mb 0.00 in0.0 mm 0.00 in0.0 mm 0.00 in0.0 mm
12:10 AM 91.1°F32.8°C 52.0°F11.1°C 26% Calm Calm 1.0 mph1.6 kmh 29.80 in1009.1 mb 0.00 in0.0 mm 0.00 in0.0 mm 0.00 in0.0 mm
12:20 AM 90.0°F32.2°C 53.0°F11.7°C 28% Calm Calm 1.0 mph1.6 kmh 29.80 in1009.1 mb 0.00 in0.0 mm 0.00 in0.0 mm 0.00 in0.0 mm
12:30 AM 89.2°F31.8°C 52.0°F11.1°C 28% Calm Calm 1.0 mph1.6 kmh 29.80 in1009.1 mb 0.00 in0.0 mm 0.00 in0.0 mm 0.00 in0.0 mm
12:40 AM 89.1°F31.7°C 52.0°F11.1°C 28% Calm Calm 1.0 mph1.6 kmh 29.80 in1009.1 mb 0.00 in0.0 mm 0.00 in0.0 mm 0.00 in0.0 mm
12:50 AM 89.4°F31.9°C 52.0°F11.1°C 28% Calm Calm 1.0 mph1.6 kmh 29.80 in1009.1 mb 0.00 in0.0 mm 0.00 in0.0 mm 0.00 in0.0 mm
01:00 AM 89.3°F31.8°C 53.0°F11.7°C 29% 0.1 mph SSE0.2 kmh SSE 1.0 mph1.6 kmh 29.81 in1009.5 mb 0.00 in0.0 mm 0.00 in0.0 mm 0.00 in0.0 mm
01:10 AM 88.0°F31.1°C 54.0°F12.2°C 31% Calm Calm -- 29.82 in1009.8 mb 0.00 in0.0 mm 0.00 in0.0 mm 0.00 in0.0 mm
01:20 AM 87.6°F30.9°C 54.0°F12.2°C 32% Calm Calm 1.0 mph1.6 kmh 29.81 in1009.5 mb 0.00 in0.0 mm 0.00 in0.0 mm 0.00 in0.0 mm
01:30 AM 87.4°F30.8°C 54.0°F12.2°C 32% 0.4 mph N0.6 kmh N 2.0 mph3.2 kmh 29.82 in1009.8 mb 0.00 in0.0 mm 0.00 in0.0 mm 0.00 in0.0 mm
01:40 AM 87.5°F30.8°C 54.0°F12.2°C 32% 0.3 mph N0.5 kmh N 1.0 mph1.6 kmh 29.82 in1009.8 mb 0.00 in0.0 mm 0.00 in0.0 mm 0.00 in0.0 mm
01:50 AM 87.5°F30.8°C 53.0°F11.7°C 31% 0.3 mph N0.5 kmh N 1.0 mph1.6 kmh 29.82 in1009.8 mb 0.00 in0.0 mm 0.00 in0.0 mm 0.00 in0.0 mm
02:00 AM 87.4°F30.8°C 53.0°F11.7°C 31% Calm Calm 1.0 mph1.6 kmh 29.82 in1009.8 mb 0.00 in0.0 mm 0.00 in0.0 mm 0.00 in0.0 mm
02:10 AM 86.8°F30.4°C 54.0°F12.2°C 33% Calm Calm 1.0 mph1.6 kmh 29.82 in1009.8 mb 0.00 in0.0 mm 0.00 in0.0 mm 0.00 in0.0 mm
02:20 AM 86.4°F30.2°C 54.0°F12.2°C 33% Calm Calm 1.0 mph1.6 kmh 29.82 in1009.8 mb 0.00 in0.0 mm 0.00 in0.0 mm 0.00 in0.0 mm
02:30 AM 86.1°F30.1°C 53.0°F11.7°C 32% Calm Calm 1.0 mph1.6 kmh 29.82 in1009.8 mb 0.00 in0.0 mm 0.00 in0.0 mm 0.00 in0.0 mm
02:40 AM 86.3°F30.2°C 53.0°F11.7°C 32% 0.1 mph N0.2 kmh N 1.0 mph1.6 kmh 29.83 in1010.2 mb 0.00 in0.0 mm 0.00 in0.0 mm 0.00 in0.0 mm
02:50 AM 86.2°F30.1°C 53.0°F11.7°C 32% Calm Calm 1.0 mph1.6 kmh 29.83 in1010.2 mb 0.00 in0.0 mm 0.00 in0.0 mm 0.00 in0.0 mm
03:00 AM 86.7°F30.4°C 53.0°F11.7°C 32% 1.2 mph SSE1.9 kmh SSE 5.0 mph8.0 kmh 29.83 in1010.2 mb 0.00 in0.0 mm 0.00 in0.0 mm 0.00 in0.0 mm
03:10 AM 87.2°F30.7°C 55.0°F12.8°C 33% 2.4 mph SE3.9 kmh SE 5.0 mph8.0 kmh 29.83 in1010.2 mb 0.00 in0.0 mm 0.00 in0.0 mm 0.00 in0.0 mm
03:20 AM 86.5°F30.3°C 57.0°F13.9°C 36% 2.2 mph SE3.5 kmh SE 5.0 mph8.0 kmh 29.83 in1010.2 mb 0.00 in0.0 mm 0.00 in0.0 mm 0.00 in0.0 mm
03:30 AM 86.0°F30.0°C 56.0°F13.3°C 36% 1.3 mph SE2.1 kmh SE 3.0 mph4.8 kmh 29.84 in1010.5 mb 0.00 in0.0 mm 0.00 in0.0 mm 0.00 in0.0 mm
03:40 AM 85.8°F29.9°C 57.0°F13.9°C 38% 1.1 mph SE1.8 kmh SE 4.0 mph6.4 kmh 29.85 in1010.8 mb 0.00 in0.0 mm 0.00 in0.0 mm 0.00 in0.0 mm
03:50 AM 85.5°F29.7°C 57.0°F13.9°C 38% 0.7 mph ESE1.1 kmh ESE 3.0 mph4.8 kmh 29.85 in1010.8 mb 0.00 in0.0 mm 0.00 in0.0 mm 0.00 in0.0 mm
04:00 AM 85.3°F29.6°C 58.0°F14.4°C 39% 1.2 mph SE1.9 kmh SE 4.0 mph6.4 kmh 29.85 in1010.8 mb 0.00 in0.0 mm 0.00 in0.0 mm 0.00 in0.0 mm
04:10 AM 85.1°F29.5°C 58.0°F14.4°C 40% 1.8 mph SE2.9 kmh SE 4.0 mph6.4 kmh 29.86 in1011.2 mb 0.00 in0.0 mm 0.00 in0.0 mm 0.00 in0.0 mm
04:20 AM 84.9°F29.4°C 59.0°F15.0°C 41% 1.4 mph S2.3 kmh S 6.0 mph9.7 kmh 29.87 in1011.5 mb 0.00 in0.0 mm 0.00 in0.0 mm 0.00 in0.0 mm
04:30 AM 84.5°F29.2°C 58.0°F14.4°C 41% 0.6 mph SE1.0 kmh SE 3.0 mph4.8 kmh 29.88 in1011.9 mb 0.00 in0.0 mm 0.00 in0.0 mm 0.00 in0.0 mm
04:40 AM 84.0°F28.9°C 58.0°F14.4°C 42% 1.0 mph SE1.6 kmh SE 3.0 mph4.8 kmh 29.89 in1012.2 mb 0.00 in0.0 mm 0.00 in0.0 mm 0.00 in0.0 mm
04:50 AM 84.3°F29.1°C 59.0°F15.0°C 42% 0.8 mph SW1.3 kmh SW 4.0 mph6.4 kmh 29.89 in1012.2 mb 0.00 in0.0 mm 0.00 in0.0 mm 0.00 in0.0 mm
05:00 AM 84.5°F29.2°C 59.0°F15.0°C 42% 0.5 mph SW0.8 kmh SW 3.0 mph4.8 kmh 29.89 in1012.2 mb 0.00 in0.0 mm 0.00 in0.0 mm 0.00 in0.0 mm
05:10 AM 84.4°F29.1°C 59.0°F15.0°C 43% 1.0 mph SSW1.6 kmh SSW 2.0 mph3.2 kmh 29.90 in1012.5 mb 0.00 in0.0 mm 0.00 in0.0 mm 0.00 in0.0 mm
05:20 AM 84.5°F29.2°C 60.0°F15.6°C 43% 0.5 mph WNW0.8 kmh WNW 5.0 mph8.0 kmh 29.90 in1012.5 mb 0.00 in0.0 mm 0.00 in0.0 mm 0.00 in0.0 mm
05:30 AM 84.3°F29.1°C 59.0°F15.0°C 43% 0.7 mph NW1.1 kmh NW 2.0 mph3.2 kmh 29.90 in1012.5 mb 0.00 in0.0 mm 0.00 in0.0 mm 0.00 in0.0 mm
05:40 AM 84.0°F28.9°C 60.0°F15.6°C 44% 0.7 mph NW1.1 kmh NW 3.0 mph4.8 kmh 29.90 in1012.5 mb 0.00 in0.0 mm 0.00 in0.0 mm 0.00 in0.0 mm
05:50 AM 84.0°F28.9°C 60.0°F15.6°C 44% 1.4 mph WNW2.3 kmh WNW 3.0 mph4.8 kmh 29.90 in1012.5 mb 0.00 in0.0 mm 0.00 in0.0 mm 0.00 in0.0 mm
06:00 AM 83.8°F28.8°C 60.0°F15.6°C 45% 1.0 mph NW1.6 kmh NW 3.0 mph4.8 kmh 29.90 in1012.5 mb 0.00 in0.0 mm 0.00 in0.0 mm 0.00 in0.0 mm
06:10 AM 83.7°F28.7°C 61.0°F16.1°C 46% 0.6 mph NW1.0 kmh NW 3.0 mph4.8 kmh 29.91 in1012.9 mb 0.00 in0.0 mm 0.00 in0.0 mm 0.00 in0.0 mm
06:20 AM 83.5°F28.6°C 61.0°F16.1°C 46% 0.2 mph WNW0.3 kmh WNW 1.0 mph1.6 kmh 29.91 in1012.9 mb 0.00 in0.0 mm 0.00 in0.0 mm 0.00 in0.0 mm
06:30 AM 83.2°F28.4°C 61.0°F16.1°C 47% Calm Calm 1.0 mph1.6 kmh 29.92 in1013.2 mb 0.00 in0.0 mm 0.00 in0.0 mm 0.00 in0.0 mm
06:40 AM 83.0°F28.3°C 61.0°F16.1°C 48% Calm Calm 1.0 mph1.6 kmh 29.92 in1013.2 mb 0.00 in0.0 mm 0.00 in0.0 mm 0.00 in0.0 mm
06:50 AM 82.7°F28.2°C 61.0°F16.1°C 48% Calm Calm -- 29.92 in1013.2 mb 0.00 in0.0 mm 0.00 in0.0 mm 0.00 in0.0 mm
07:00 AM 83.0°F28.3°C 61.0°F16.1°C 48% Calm Calm 1.0 mph1.6 kmh 29.93 in1013.5 mb 0.00 in0.0 mm 0.00 in0.0 mm 0.00 in0.0 mm
07:10 AM 83.8°F28.8°C 61.0°F16.1°C 47% 0.5 mph SSE0.8 kmh SSE 5.0 mph8.0 kmh 29.93 in1013.5 mb 0.00 in0.0 mm 0.00 in0.0 mm 0.00 in0.0 mm
07:20 AM 84.2°F29.0°C 61.0°F16.1°C 46% 1.0 mph SE1.6 kmh SE 3.0 mph4.8 kmh 29.93 in1013.5 mb 0.00 in0.0 mm 0.00 in0.0 mm 0.00 in0.0 mm
07:30 AM 84.6°F29.2°C 61.0°F16.1°C 45% 0.2 mph SE0.3 kmh SE 2.0 mph3.2 kmh 29.93 in1013.5 mb 0.00 in0.0 mm 0.00 in0.0 mm 0.00 in0.0 mm
07:40 AM 85.1°F29.5°C 61.0°F16.1°C 45% Calm Calm 1.0 mph1.6 kmh 29.93 in1013.5 mb 0.00 in0.0 mm 0.00 in0.0 mm 0.00 in0.0 mm
07:50 AM 87.0°F30.6°C 62.0°F16.7°C 43% 0.1 mph SE0.2 kmh SE 1.0 mph1.6 kmh 29.93 in1013.5 mb 0.00 in0.0 mm 0.00 in0.0 mm 0.00 in0.0 mm
08:00 AM 87.6°F30.9°C 62.0°F16.7°C 42% 0.7 mph NNE1.1 kmh NNE 4.0 mph6.4 kmh 29.93 in1013.5 mb 0.00 in0.0 mm 0.00 in0.0 mm 0.00 in0.0 mm
08:10 AM 89.2°F31.8°C 61.0°F16.1°C 39% 0.5 mph N0.8 kmh N 3.0 mph4.8 kmh 29.94 in1013.9 mb 0.00 in0.0 mm 0.00 in0.0 mm 0.00 in0.0 mm
08:20 AM 91.1°F32.8°C 61.0°F16.1°C 36% 0.5 mph SE0.8 kmh SE 4.0 mph6.4 kmh 29.93 in1013.5 mb 0.00 in0.0 mm 0.00 in0.0 mm 0.00 in0.0 mm
08:30 AM 93.2°F34.0°C 62.0°F16.7°C 35% 0.8 mph SE1.3 kmh SE 6.0 mph9.7 kmh 29.93 in1013.5 mb 0.00 in0.0 mm 0.00 in0.0 mm 0.00 in0.0 mm
08:40 AM 91.6°F33.1°C 62.0°F16.7°C 37% 2.3 mph SSW3.7 kmh SSW 5.0 mph8.0 kmh 29.93 in1013.5 mb 0.00 in0.0 mm 0.00 in0.0 mm 0.00 in0.0 mm
08:50 AM 90.6°F32.6°C 61.0°F16.1°C 37% 2.0 mph SW3.2 kmh SW 6.0 mph9.7 kmh 29.93 in1013.5 mb 0.00 in0.0 mm 0.00 in0.0 mm 0.00 in0.0 mm
09:00 AM 91.5°F33.1°C 61.0°F16.1°C 36% 0.7 mph NNE1.1 kmh NNE 3.0 mph4.8 kmh 29.93 in1013.5 mb 0.00 in0.0 mm 0.00 in0.0 mm 0.00 in0.0 mm
09:10 AM 92.8°F33.8°C 62.0°F16.7°C 36% 0.7 mph SE1.1 kmh SE 4.0 mph6.4 kmh 29.93 in1013.5 mb 0.00 in0.0 mm 0.00 in0.0 mm 0.00 in0.0 mm
09:20 AM 92.7°F33.7°C 61.0°F16.1°C 35% 0.7 mph WSW1.1 kmh WSW 3.0 mph4.8 kmh 29.92 in1013.2 mb 0.00 in0.0 mm 0.00 in0.0 mm 0.00 in0.0 mm
09:30 AM 91.9°F33.3°C 62.0°F16.7°C 37% 0.1 mph NNE0.2 kmh NNE 2.0 mph3.2 kmh 29.92 in1013.2 mb 0.00 in0.0 mm 0.00 in0.0 mm 0.00 in0.0 mm
09:40 AM 92.4°F33.6°C 62.0°F16.7°C 36% 0.6 mph SE1.0 kmh SE 4.0 mph6.4 kmh 29.92 in1013.2 mb 0.00 in0.0 mm 0.00 in0.0 mm 0.00 in0.0 mm
09:50 AM 92.7°F33.7°C 61.0°F16.1°C 35% 2.0 mph SSW3.2 kmh SSW 4.0 mph6.4 kmh 29.92 in1013.2 mb 0.00 in0.0 mm 0.00 in0.0 mm 0.00 in0.0 mm
10:00 AM 92.9°F33.8°C 61.0°F16.1°C 35% 1.6 mph S2.6 kmh S 5.0 mph8.0 kmh 29.92 in1013.2 mb 0.00 in0.0 mm 0.00 in0.0 mm 0.00 in0.0 mm
10:10 AM 94.5°F34.7°C 62.0°F16.7°C 34% 1.9 mph SW3.1 kmh SW 4.0 mph6.4 kmh 29.92 in1013.2 mb 0.00 in0.0 mm 0.00 in0.0 mm 0.00 in0.0 mm
10:20 AM 94.5°F34.7°C 61.0°F16.1°C 33% 2.2 mph SW3.5 kmh SW 6.0 mph9.7 kmh 29.92 in1013.2 mb 0.00 in0.0 mm 0.00 in0.0 mm 0.00 in0.0 mm
10:30 AM 94.5°F34.7°C 61.0°F16.1°C 33% 1.6 mph S2.6 kmh S 5.0 mph8.0 kmh 29.92 in1013.2 mb 0.00 in0.0 mm 0.00 in0.0 mm 0.00 in0.0 mm
10:40 AM 95.1°F35.1°C 62.0°F16.7°C 33% 0.6 mph SSW1.0 kmh SSW 2.0 mph3.2 kmh 29.92 in1013.2 mb 0.00 in0.0 mm 0.00 in0.0 mm 0.00 in0.0 mm
10:50 AM 95.4°F35.2°C 61.0°F16.1°C 32% 2.0 mph SW3.2 kmh SW 5.0 mph8.0 kmh 29.91 in1012.9 mb 0.00 in0.0 mm 0.00 in0.0 mm 0.00 in0.0 mm
11:00 AM 96.9°F36.1°C 60.0°F15.6°C 29% 1.1 mph SE1.8 kmh SE 5.0 mph8.0 kmh 29.91 in1012.9 mb 0.00 in0.0 mm 0.00 in0.0 mm 0.00 in0.0 mm
11:10 AM 96.8°F36.0°C 61.0°F16.1°C 30% 1.1 mph S1.8 kmh S 6.0 mph9.7 kmh 29.91 in1012.9 mb 0.00 in0.0 mm 0.00 in0.0 mm 0.00 in0.0 mm
11:20 AM 97.0°F36.1°C 61.0°F16.1°C 30% 2.1 mph SSW3.4 kmh SSW 6.0 mph9.7 kmh 29.90 in1012.5 mb 0.00 in0.0 mm 0.00 in0.0 mm 0.00 in0.0 mm
11:30 AM 98.0°F36.7°C 61.0°F16.1°C 29% 1.3 mph SSE2.1 kmh SSE 4.0 mph6.4 kmh 29.90 in1012.5 mb 0.00 in0.0 mm 0.00 in0.0 mm 0.00 in0.0 mm
11:40 AM 98.2°F36.8°C 61.0°F16.1°C 29% 2.8 mph SE4.5 kmh SE 8.0 mph12.9 kmh 29.90 in1012.5 mb 0.00 in0.0 mm 0.00 in0.0 mm 0.00 in0.0 mm
11:50 AM 98.6°F37.0°C 61.0°F16.1°C 29% 1.3 mph SW2.1 kmh SW 4.0 mph6.4 kmh 29.89 in1012.2 mb 0.00 in0.0 mm 0.00 in0.0 mm 0.00 in0.0 mm
12:00 PM 99.2°F37.3°C 61.0°F16.1°C 28% 2.8 mph SW4.5 kmh SW 11.0 mph17.7 kmh 29.89 in1012.2 mb 0.00 in0.0 mm 0.00 in0.0 mm 0.00 in0.0 mm
12:10 PM 98.8°F37.1°C 61.0°F16.1°C 29% 2.9 mph S4.7 kmh S 10.0 mph16.1 kmh 29.89 in1012.2 mb 0.00 in0.0 mm 0.00 in0.0 mm 0.00 in0.0 mm
12:20 PM 99.7°F37.6°C 60.0°F15.6°C 27% 2.0 mph ESE3.2 kmh ESE 7.0 mph11.3 kmh 29.89 in1012.2 mb 0.00 in0.0 mm 0.00 in0.0 mm 0.00 in0.0 mm
12:30 PM 100.2°F37.9°C 61.0°F16.1°C 27% 1.8 mph SSW2.9 kmh SSW 4.0 mph6.4 kmh 29.89 in1012.2 mb 0.00 in0.0 mm 0.00 in0.0 mm 0.00 in0.0 mm
12:40 PM 100.0°F37.8°C 59.0°F15.0°C 26% 3.4 mph SW5.5 kmh SW 8.0 mph12.9 kmh 29.89 in1012.2 mb 0.00 in0.0 mm 0.00 in0.0 mm 0.00 in0.0 mm
12:50 PM 100.3°F37.9°C 60.0°F15.6°C 26% 2.5 mph SSE4.0 kmh SSE 8.0 mph12.9 kmh 29.88 in1011.9 mb 0.00 in0.0 mm 0.00 in0.0 mm 0.00 in0.0 mm
01:00 PM 100.6°F38.1°C 60.0°F15.6°C 26% 3.0 mph SE4.8 kmh SE 7.0 mph11.3 kmh 29.88 in1011.9 mb 0.00 in0.0 mm 0.00 in0.0 mm 0.00 in0.0 mm
01:10 PM 100.9°F38.3°C 59.0°F15.0°C 25% 2.6 mph SW4.2 kmh SW 7.0 mph11.3 kmh 29.87 in1011.5 mb 0.00 in0.0 mm 0.00 in0.0 mm 0.00 in0.0 mm
01:20 PM 101.5°F38.6°C 60.0°F15.6°C 25% 3.8 mph S6.1 kmh S 9.0 mph14.5 kmh 29.87 in1011.5 mb 0.00 in0.0 mm 0.00 in0.0 mm 0.00 in0.0 mm
01:30 PM 101.6°F38.7°C 59.0°F15.0°C 24% 2.8 mph SSW4.5 kmh SSW 6.0 mph9.7 kmh 29.86 in1011.2 mb 0.00 in0.0 mm 0.00 in0.0 mm 0.00 in0.0 mm
01:40 PM 102.2°F39.0°C 59.0°F15.0°C 24% 2.0 mph SSW3.2 kmh SSW 9.0 mph14.5 kmh 29.85 in1010.8 mb 0.00 in0.0 mm 0.00 in0.0 mm 0.00 in0.0 mm
01:50 PM 102.0°F38.9°C 60.0°F15.6°C 25% 3.2 mph WNW5.1 kmh WNW 9.0 mph14.5 kmh 29.85 in1010.8 mb 0.00 in0.0 mm 0.00 in0.0 mm 0.00 in0.0 mm
02:00 PM 102.3°F39.1°C 60.0°F15.6°C 25% 3.0 mph SW4.8 kmh SW 10.0 mph16.1 kmh 29.84 in1010.5 mb 0.00 in0.0 mm 0.00 in0.0 mm 0.00 in0.0 mm
02:10 PM 103.4°F39.7°C 60.0°F15.6°C 24% 2.9 mph WNW4.7 kmh WNW 8.0 mph12.9 kmh 29.83 in1010.2 mb 0.00 in0.0 mm 0.00 in0.0 mm 0.00 in0.0 mm
02:20 PM 102.9°F39.4°C 59.0°F15.0°C 23% 3.7 mph SW6.0 kmh SW 12.0 mph19.3 kmh 29.82 in1009.8 mb 0.00 in0.0 mm 0.00 in0.0 mm 0.00 in0.0 mm
02:30 PM 102.4°F39.1°C 59.0°F15.0°C 24% 3.8 mph SW6.1 kmh SW 12.0 mph19.3 kmh 29.82 in1009.8 mb 0.00 in0.0 mm 0.00 in0.0 mm 0.00 in0.0 mm
02:40 PM 103.5°F39.7°C 59.0°F15.0°C 23% 2.5 mph NW4.0 kmh NW 9.0 mph14.5 kmh 29.81 in1009.5 mb 0.00 in0.0 mm 0.00 in0.0 mm 0.00 in0.0 mm
02:50 PM 103.5°F39.7°C 59.0°F15.0°C 23% 4.1 mph SE6.6 kmh SE 10.0 mph16.1 kmh 29.81 in1009.5 mb 0.00 in0.0 mm 0.00 in0.0 mm 0.00 in0.0 mm
03:00 PM 103.0°F39.4°C 59.0°F15.0°C 23% 3.3 mph SSE5.3 kmh SSE 11.0 mph17.7 kmh 29.81 in1009.5 mb 0.00 in0.0 mm 0.00 in0.0 mm 0.00 in0.0 mm
03:10 PM 103.3°F39.6°C 59.0°F15.0°C 23% 3.4 mph SSW5.5 kmh SSW 11.0 mph17.7 kmh 29.81 in1009.5 mb 0.00 in0.0 mm 0.00 in0.0 mm 0.00 in0.0 mm
03:20 PM 103.8°F39.9°C 58.0°F14.4°C 22% 2.7 mph SE4.3 kmh SE 8.0 mph12.9 kmh 29.80 in1009.1 mb 0.00 in0.0 mm 0.00 in0.0 mm 0.00 in0.0 mm
03:30 PM 103.3°F39.6°C 58.0°F14.4°C 22% 3.2 mph S5.1 kmh S 11.0 mph17.7 kmh 29.80 in1009.1 mb 0.00 in0.0 mm 0.00 in0.0 mm 0.00 in0.0 mm
03:40 PM 103.1°F39.5°C 58.0°F14.4°C 22% 4.3 mph S6.9 kmh S 11.0 mph17.7 kmh 29.80 in1009.1 mb 0.00 in0.0 mm 0.00 in0.0 mm 0.00 in0.0 mm
03:50 PM 103.4°F39.7°C 56.0°F13.3°C 21% 3.9 mph S6.3 kmh S 8.0 mph12.9 kmh 29.80 in1009.1 mb 0.00 in0.0 mm 0.00 in0.0 mm 0.00 in0.0 mm
04:00 PM 103.5°F39.7°C 57.0°F13.9°C 21% 3.5 mph SW5.6 kmh SW 11.0 mph17.7 kmh 29.79 in1008.8 mb 0.00 in0.0 mm 0.00 in0.0 mm 0.00 in0.0 mm
04:10 PM 102.9°F39.4°C 57.0°F13.9°C 22% 3.2 mph NW5.1 kmh NW 7.0 mph11.3 kmh 29.79 in1008.8 mb 0.00 in0.0 mm 0.00 in0.0 mm 0.00 in0.0 mm
04:20 PM 102.9°F39.4°C 57.0°F13.9°C 22% 4.3 mph S6.9 kmh S 10.0 mph16.1 kmh 29.79 in1008.8 mb 0.00 in0.0 mm 0.00 in0.0 mm 0.00 in0.0 mm
04:30 PM 103.2°F39.6°C 58.0°F14.4°C 22% 2.3 mph SSW3.7 kmh SSW 7.0 mph11.3 kmh 29.80 in1009.1 mb 0.00 in0.0 mm 0.00 in0.0 mm 0.00 in0.0 mm
04:40 PM 103.1°F39.5°C 56.0°F13.3°C 22% 2.8 mph SW4.5 kmh SW 7.0 mph11.3 kmh 29.80 in1009.1 mb 0.00 in0.0 mm 0.00 in0.0 mm 0.00 in0.0 mm
04:50 PM 103.7°F39.8°C 57.0°F13.9°C 21% 3.2 mph S5.1 kmh S 10.0 mph16.1 kmh 29.80 in1009.1 mb 0.00 in0.0 mm 0.00 in0.0 mm 0.00 in0.0 mm
05:00 PM 103.6°F39.8°C 57.0°F13.9°C 21% 2.6 mph SW4.2 kmh SW 6.0 mph9.7 kmh 29.80 in1009.1 mb 0.00 in0.0 mm 0.00 in0.0 mm 0.00 in0.0 mm
05:10 PM 103.0°F39.4°C 57.0°F13.9°C 22% 3.5 mph SE5.6 kmh SE 7.0 mph11.3 kmh 29.82 in1009.8 mb 0.00 in0.0 mm 0.00 in0.0 mm 0.00 in0.0 mm
05:20 PM 101.0°F38.3°C 53.0°F11.7°C 20% 4.9 mph NW7.9 kmh NW 17.0 mph27.4 kmh 29.84 in1010.5 mb 0.00 in0.0 mm 0.00 in0.0 mm 0.00 in0.0 mm
05:30 PM 98.0°F36.7°C 52.0°F11.1°C 21% 5.7 mph NE9.2 kmh NE 13.0 mph20.9 kmh 29.84 in1010.5 mb 0.00 in0.0 mm 0.00 in0.0 mm 0.00 in0.0 mm
05:40 PM 95.8°F35.4°C 54.0°F12.2°C 24% 6.8 mph NW10.9 kmh NW 16.0 mph25.7 kmh 29.84 in1010.5 mb 0.00 in0.0 mm 0.00 in0.0 mm 0.00 in0.0 mm
05:50 PM 95.2°F35.1°C 54.0°F12.2°C 25% 5.8 mph WNW9.3 kmh WNW 18.0 mph29.0 kmh 29.84 in1010.5 mb 0.00 in0.0 mm 0.00 in0.0 mm 0.00 in0.0 mm
06:00 PM 95.5°F35.3°C 53.0°F11.7°C 24% 4.9 mph W7.9 kmh W 13.0 mph20.9 kmh 29.84 in1010.5 mb 0.00 in0.0 mm 0.00 in0.0 mm 0.00 in0.0 mm
06:10 PM 94.5°F34.7°C 56.0°F13.3°C 27% 4.0 mph NE6.4 kmh NE 12.0 mph19.3 kmh 29.84 in1010.5 mb 0.00 in0.0 mm 0.00 in0.0 mm 0.00 in0.0 mm
06:20 PM 93.2°F34.0°C 53.0°F11.7°C 25% 6.8 mph NE10.9 kmh NE 16.0 mph25.7 kmh 29.85 in1010.8 mb 0.00 in0.0 mm 0.00 in0.0 mm 0.00 in0.0 mm
06:30 PM 93.2°F34.0°C 50.0°F10.0°C 23% 6.4 mph ENE10.3 kmh ENE 15.0 mph24.1 kmh 29.85 in1010.8 mb 0.00 in0.0 mm 0.00 in0.0 mm 0.00 in0.0 mm
06:40 PM 93.0°F33.9°C 51.0°F10.6°C 24% 6.2 mph NNE10.0 kmh NNE 20.0 mph32.2 kmh 29.87 in1011.5 mb 0.00 in0.0 mm 0.00 in0.0 mm 0.00 in0.0 mm
06:50 PM 91.7°F33.2°C 52.0°F11.1°C 26% 7.3 mph NE11.7 kmh NE 17.0 mph27.4 kmh 29.85 in1010.8 mb 0.00 in0.0 mm 0.00 in0.0 mm 0.00 in0.0 mm
07:00 PM 91.7°F33.2°C 52.0°F11.1°C 26% 6.9 mph NE11.1 kmh NE 16.0 mph25.7 kmh 29.84 in1010.5 mb 0.00 in0.0 mm 0.00 in0.0 mm 0.00 in0.0 mm
07:10 PM 91.7°F33.2°C 51.0°F10.6°C 25% 6.0 mph ESE9.7 kmh ESE 15.0 mph24.1 kmh 29.84 in1010.5 mb 0.00 in0.0 mm 0.00 in0.0 mm 0.00 in0.0 mm
07:20 PM 92.1°F33.4°C 50.0°F10.0°C 24% 6.0 mph NNE9.7 kmh NNE 14.0 mph22.5 kmh 29.82 in1009.8 mb 0.00 in0.0 mm 0.00 in0.0 mm 0.00 in0.0 mm
07:30 PM 92.8°F33.8°C 50.0°F10.0°C 23% 4.1 mph NE6.6 kmh NE 12.0 mph19.3 kmh 29.80 in1009.1 mb 0.00 in0.0 mm 0.00 in0.0 mm 0.00 in0.0 mm
07:40 PM 93.0°F33.9°C 50.0°F10.0°C 23% 2.6 mph NE4.2 kmh NE 8.0 mph12.9 kmh 29.78 in1008.5 mb 0.00 in0.0 mm 0.00 in0.0 mm 0.00 in0.0 mm
07:50 PM 93.3°F34.1°C 49.0°F9.4°C 22% 3.2 mph SE5.1 kmh SE 8.0 mph12.9 kmh 29.80 in1009.1 mb 0.00 in0.0 mm 0.00 in0.0 mm 0.00 in0.0 mm
08:00 PM 93.3°F34.1°C 49.0°F9.4°C 22% 1.1 mph N1.8 kmh N 4.0 mph6.4 kmh 29.82 in1009.8 mb 0.00 in0.0 mm 0.00 in0.0 mm 0.00 in0.0 mm
08:10 PM 93.3°F34.1°C 50.0°F10.0°C 23% 5.5 mph NNW8.9 kmh NNW 12.0 mph19.3 kmh 29.83 in1010.2 mb 0.00 in0.0 mm 0.00 in0.0 mm 0.00 in0.0 mm
08:20 PM 95.0°F35.0°C 47.0°F8.3°C 19% 3.4 mph SW5.5 kmh SW 9.0 mph14.5 kmh 29.82 in1009.8 mb 0.00 in0.0 mm 0.00 in0.0 mm 0.00 in0.0 mm
08:30 PM 94.7°F34.8°C 52.0°F11.1°C 23% 4.3 mph NE6.9 kmh NE 15.0 mph24.1 kmh 29.85 in1010.8 mb 0.00 in0.0 mm 0.00 in0.0 mm 0.00 in0.0 mm
08:40 PM 93.3°F34.1°C 51.0°F10.6°C 24% 3.8 mph SE6.1 kmh SE 16.0 mph25.7 kmh 29.90 in1012.5 mb 0.00 in0.0 mm 0.00 in0.0 mm 0.00 in0.0 mm
08:50 PM 92.0°F33.3°C 54.0°F12.2°C 27% 6.7 mph WSW10.8 kmh WSW 16.0 mph25.7 kmh 29.89 in1012.2 mb 0.00 in0.0 mm 0.00 in0.0 mm 0.00 in0.0 mm
09:00 PM 88.0°F31.1°C 63.0°F17.2°C 43% 7.4 mph S11.9 kmh S 16.0 mph25.7 kmh 29.92 in1013.2 mb 0.00 in0.0 mm 0.00 in0.0 mm 0.00 in0.0 mm
09:10 PM 86.9°F30.5°C 62.0°F16.7°C 44% 5.0 mph SE8.0 kmh SE 11.0 mph17.7 kmh 29.93 in1013.5 mb 0.00 in0.0 mm 0.00 in0.0 mm 0.00 in0.0 mm
09:20 PM 86.0°F30.0°C 64.0°F17.8°C 48% 6.9 mph S11.1 kmh S 23.0 mph37.0 kmh 29.95 in1014.2 mb 0.00 in0.0 mm 0.00 in0.0 mm 0.00 in0.0 mm
09:30 PM 82.7°F28.2°C 65.0°F18.3°C 55% 4.7 mph NW7.6 kmh NW 14.0 mph22.5 kmh 29.95 in1014.2 mb 0.00 in0.0 mm 0.00 in0.0 mm 0.00 in0.0 mm
09:40 PM 82.0°F27.8°C 64.0°F17.8°C 55% 3.5 mph SE5.6 kmh SE 9.0 mph14.5 kmh 29.95 in1014.2 mb 0.00 in0.0 mm 0.00 in0.0 mm 0.00 in0.0 mm
09:50 PM 82.1°F27.8°C 64.0°F17.8°C 55% 3.0 mph SW4.8 kmh SW 11.0 mph17.7 kmh 29.95 in1014.2 mb 0.00 in0.0 mm 0.00 in0.0 mm 0.00 in0.0 mm
10:00 PM 82.2°F27.9°C 64.0°F17.8°C 54% 2.4 mph SW3.9 kmh SW 9.0 mph14.5 kmh 29.96 in1014.6 mb 0.00 in0.0 mm 0.00 in0.0 mm 0.00 in0.0 mm
10:10 PM 82.5°F28.1°C 64.0°F17.8°C 53% 2.4 mph SW3.9 kmh SW 5.0 mph8.0 kmh 29.97 in1014.9 mb 0.00 in0.0 mm 0.00 in0.0 mm 0.00 in0.0 mm
10:20 PM 82.5°F28.1°C 63.0°F17.2°C 52% 2.8 mph SW4.5 kmh SW 6.0 mph9.7 kmh 29.97 in1014.9 mb 0.00 in0.0 mm 0.00 in0.0 mm 0.00 in0.0 mm
10:30 PM 82.7°F28.2°C 63.0°F17.2°C 51% 1.8 mph ESE2.9 kmh ESE 5.0 mph8.0 kmh 29.97 in1014.9 mb 0.00 in0.0 mm 0.00 in0.0 mm 0.00 in0.0 mm
10:40 PM 82.6°F28.1°C 62.0°F16.7°C 50% 1.2 mph SSW1.9 kmh SSW 5.0 mph8.0 kmh 29.97 in1014.9 mb 0.00 in0.0 mm 0.00 in0.0 mm 0.00 in0.0 mm
10:50 PM 82.7°F28.2°C 62.0°F16.7°C 50% 1.3 mph SW2.1 kmh SW 4.0 mph6.4 kmh 29.97 in1014.9 mb 0.00 in0.0 mm 0.00 in0.0 mm 0.00 in0.0 mm
11:00 PM 82.4°F28.0°C 62.0°F16.7°C 51% 1.3 mph SE2.1 kmh SE 3.0 mph4.8 kmh 29.97 in1014.9 mb 0.00 in0.0 mm 0.00 in0.0 mm 0.00 in0.0 mm
11:10 PM 82.1°F27.8°C 63.0°F17.2°C 52% 0.9 mph SE1.4 kmh SE 4.0 mph6.4 kmh 29.97 in1014.9 mb 0.00 in0.0 mm 0.00 in0.0 mm 0.00 in0.0 mm
11:20 PM 81.9°F27.7°C 62.0°F16.7°C 52% 1.2 mph SE1.9 kmh SE 4.0 mph6.4 kmh 29.97 in1014.9 mb 0.00 in0.0 mm 0.00 in0.0 mm 0.00 in0.0 mm
11:30 PM 81.9°F27.7°C 62.0°F16.7°C 52% 1.6 mph SE2.6 kmh SE 3.0 mph4.8 kmh 29.97 in1014.9 mb 0.00 in0.0 mm 0.00 in0.0 mm 0.00 in0.0 mm
11:40 PM 81.9°F27.7°C 62.0°F16.7°C 52% 0.9 mph SE1.4 kmh SE 3.0 mph4.8 kmh 29.97 in1014.9 mb 0.00 in0.0 mm 0.00 in0.0 mm 0.00 in0.0 mm
11:50 PM 81.9°F27.7°C 62.0°F16.7°C 52% 0.5 mph SE0.8 kmh SE 2.0 mph3.2 kmh 29.97 in1014.9 mb 0.00 in0.0 mm 0.00 in0.0 mm 0.00 in0.0 mm